This is the latest recevied weather packets stored in our database for station/object W6UA-13. If no packets are shown the sender has not sent any weather packets the latest 10 day(s).
| Time | Temp. | Humidity | Pressure | Rain* | Wind** | Luminosity | Snow |
|---|---|---|---|---|---|---|---|
| 1777934081 | 17.22° C | 63% | 1015.8 hPa | 0 mm | - | 527 W/m² | - |
| 1777933182 | 18.33° C | 61% | 1015.8 hPa | 0 mm | - | 773 W/m² | - |
| 1777932282 | 18.33° C | 58% | 1015.8 hPa | 0 mm | - | 807 W/m² | - |
| 1777931382 | 18.89° C | 54% | 1015.9 hPa | 0 mm | - | 833 W/m² | - |
| 1777930482 | 18.89° C | 56% | 1016 hPa | 0 mm | - | 893 W/m² | - |
| 1777929582 | 18.89° C | 55% | 1016.1 hPa | 0 mm | - | 849 W/m² | - |
| 1777928682 | 18.33° C | 58% | 1016.1 hPa | 0 mm | - | 1011 W/m² | - |
| 1777927782 | 17.78° C | 62% | 1016 hPa | 0 mm | - | 1034 W/m² | - |
| 1777926882 | 18.33° C | 59% | 1015.9 hPa | 0 mm | - | 482 W/m² | - |
| 1777925982 | 18.33° C | 58% | 1015.9 hPa | 0 mm | - | 547 W/m² | - |
| 1777925082 | 18.89° C | 56% | 1015.8 hPa | 0 mm | - | 988 W/m² | - |
| 1777924182 | 17.22° C | 61% | 1015.8 hPa | 0 mm | - | 1129 W/m² | - |
| 1777923282 | 17.22° C | 60% | 1015.7 hPa | 0 mm | - | 954 W/m² | - |
| 1777922382 | 17.22° C | 62% | 1015.7 hPa | 0 mm | - | 371 W/m² | - |
| 1777921482 | 17.22° C | 62% | 1015.8 hPa | 0 mm | - | 895 W/m² | - |
| 1777920582 | 18.33° C | 60% | 1015.6 hPa | 0 mm | - | 863 W/m² | - |
| 1777919682 | 17.78° C | 60% | 1015.7 hPa | 0 mm | - | 838 W/m² | - |
| 1777918782 | 18.33° C | 59% | 1015.7 hPa | 0 mm | - | 816 W/m² | - |
| 1777917882 | 17.78° C | 62% | 1015.8 hPa | 0 mm | - | 788 W/m² | - |
| 1777916982 | 17.22° C | 61% | 1015.6 hPa | 0 mm | - | 761 W/m² | - |
| 1777916082 | 17.22° C | 62% | 1015.5 hPa | 0 mm | - | 744 W/m² | - |
| 1777915182 | 17.22° C | 62% | 1015.4 hPa | 0 mm | - | 160 W/m² | - |
| 1777914282 | 16.67° C | 62% | 1015.4 hPa | 0 mm | - | 677 W/m² | - |
| 1777913382 | 16.11° C | 63% | 1015.4 hPa | 0 mm | - | 617 W/m² | - |
| 1777912482 | 16.11° C | 63% | 1015.4 hPa | 0 mm | - | 575 W/m² | - |
* Rain latest hour (hover to see other rain measurements)
** Current wind speed in m/s (hover to see current wind gust speed)